< Typhoon 198504 1985 Season Typhoon 198506 >
Typhoon 198505 (HAL)
General InformationTrack Information on Google MapsDetailed Wind InformationList of All Images || Disaster Info.ResourceGoogle EarthGE AnimationAtom FeedGeoJSON
Detalied Best Track (Time Zone = UTC)
Year Month Day Hour Lat. Long. Pressure (hPa) Wind (kt) Class Image Chart
1985 6 19 00 14.5 133.0 998 0 2 Image Chart
1985 6 19 06 14.6 132.5 996 0 2 Image Chart
1985 6 19 12 14.7 132.0 994 0 2 Image Chart
1985 6 19 18 14.8 131.4 992 0 2 Image Chart
1985 6 20 00 15.0 130.6 985 50 4 Image Chart
1985 6 20 06 15.2 129.8 980 65 5 Image Chart
1985 6 20 12 15.5 129.0 975 65 5 Image Chart
1985 6 20 18 15.8 127.9 975 65 5 Image Chart
1985 6 21 00 16.2 126.8 970 65 5 Image Chart
1985 6 21 06 16.5 125.5 965 70 5 Image Chart
1985 6 21 12 17.6 124.2 965 70 5 Image Chart
1985 6 21 18 18.6 122.8 960 80 5 Image Chart
1985 6 22 00 19.2 121.3 960 80 5 Image Chart
1985 6 22 06 19.0 120.4 960 80 5 Image Chart
1985 6 22 12 19.6 119.9 960 75 5 Image Chart
1985 6 22 18 20.2 119.1 965 75 5 Image Chart
1985 6 23 00 21.0 117.9 965 75 5 Image Chart
1985 6 23 06 21.3 117.0 965 75 5 Image Chart
1985 6 23 12 21.6 116.1 965 75 5 Image Chart
1985 6 23 18 21.9 115.6 970 70 5 Image Chart
1985 6 24 00 22.1 115.1 975 60 4 Image Chart
1985 6 24 06 22.9 114.9 980 60 4 Image Chart
1985 6 24 12 23.2 114.8 980 50 4 Image Chart
1985 6 24 18 23.8 114.6 985 40 3 Image Chart
1985 6 25 00 24.5 114.8 990 35 3 Image Chart
1985 6 25 06 25.0 115.0 992 0 2 Image Chart
1985 6 25 12 25.4 115.6 994 0 2 Image Chart
1985 6 25 18 26.1 116.3 996 0 2 Image Chart
1985 6 26 00 27.0 116.7 996 0 2 Image Chart
1985 6 26 06 27.7 117.9 996 0 2 Image Chart
1985 6 26 12 28.8 118.8 996 0 2 Image Chart
1985 6 26 18 30.0 120.0 996 0 2 Image Chart
1985 6 27 00 31.0 121.0 996 0 2 Image Chart
1985 6 27 06 32.0 122.0 996 0 2 Image Chart
1985 6 27 12 33.0 123.0 996 0 6 Image Chart
Japan Meteorological Agency Best Track Data | Correction Date : 1992-10-21
< Typhoon 198504 1985 Season Typhoon 198506 >

Help